Terminal Aerodrome Forecast
Issued by NWS Cleveland, OH

Home | Current Version | Previous Version | Graphics & Text | Print | Product List | Glossary Off
Versions: 1 2 3 4 5 6 7 8 9 10 11 12 13 14 15 16 17

275
FTUS41 KCLE 111740
TAFTOL
TAF
KTOL 111740Z 1118/1218 28012G20KT P6SM BKN040
     FM112300 25006KT P6SM SCT050 BKN250
     FM121000 23006KT P6SM BKN100
     FM121500 25012G20KT P6SM SCT035 OVC100=

USA.gov is the U.S. government's official web portal to all federal, state and local government web resources and services.